Terminal Aerodrome Forecast
Issued by NWS

Home | Current Version | Previous Version | Text Only | Print | Product List | Glossary Off
Versions: 1 2 3 4 5 6 7 8 9 10 11 12 13 14

734
FTUS44 KTSA 172324
TAFBVO
TAF
KBVO 172324Z 1800/1824 21011G22KT P6SM BKN250
     FM180900 29013G22KT P6SM SCT250
     FM181200 34022G35KT P6SM BKN030
     FM181800 35015G25KT P6SM SCT030
     FM182100 35011G18KT P6SM SCT250=

USA.gov is the U.S. government's official web portal to all federal, state and local government web resources and services.